sensor_id;sensor_type;location;lat;lon;timestamp;P1;durP1;ratioP1;P2;durP2;ratioP2
11305;SDS011;5708;50.660;6.778;2022-12-18T00:00:43;33.20;;;14.68;;
11305;SDS011;5708;50.660;6.778;2022-12-18T00:03:09;38.00;;;13.93;;
11305;SDS011;5708;50.660;6.778;2022-12-18T00:05:35;29.75;;;13.68;;
11305;SDS011;5708;50.660;6.778;2022-12-18T00:08:01;34.50;;;13.65;;
11305;SDS011;5708;50.660;6.778;2022-12-18T00:10:27;30.85;;;12.80;;
11305;SDS011;5708;50.660;6.778;2022-12-18T00:12:52;28.73;;;13.05;;
11305;SDS011;5708;50.660;6.778;2022-12-18T00:15:18;34.33;;;13.13;;
11305;SDS011;5708;50.660;6.778;2022-12-18T00:17:43;30.10;;;12.43;;
11305;SDS011;5708;50.660;6.778;2022-12-18T00:20:09;28.98;;;13.75;;
11305;SDS011;5708;50.660;6.778;2022-12-18T00:22:34;31.92;;;14.15;;
11305;SDS011;5708;50.660;6.778;2022-12-18T00:25:03;30.40;;;13.32;;
11305;SDS011;5708;50.660;6.778;2022-12-18T00:27:28;32.53;;;14.07;;
11305;SDS011;5708;50.660;6.778;2022-12-18T00:29:53;33.95;;;13.73;;
11305;SDS011;5708;50.660;6.778;2022-12-18T00:32:19;33.17;;;14.18;;
11305;SDS011;5708;50.660;6.778;2022-12-18T00:34:44;29.92;;;14.07;;
11305;SDS011;5708;50.660;6.778;2022-12-18T00:37:09;32.33;;;14.07;;
11305;SDS011;5708;50.660;6.778;2022-12-18T00:39:35;32.05;;;12.55;;
11305;SDS011;5708;50.660;6.778;2022-12-18T00:42:00;29.77;;;12.88;;
11305;SDS011;5708;50.660;6.778;2022-12-18T00:44:44;31.52;;;13.25;;
11305;SDS011;5708;50.660;6.778;2022-12-18T00:47:09;31.42;;;13.05;;
11305;SDS011;5708;50.660;6.778;2022-12-18T00:49:35;34.22;;;13.20;;
11305;SDS011;5708;50.660;6.778;2022-12-18T00:52:00;31.05;;;13.13;;
11305;SDS011;5708;50.660;6.778;2022-12-18T00:54:26;30.52;;;13.20;;
11305;SDS011;5708;50.660;6.778;2022-12-18T00:56:54;30.38;;;12.88;;
11305;SDS011;5708;50.660;6.778;2022-12-18T00:59:20;35.97;;;12.88;;
11305;SDS011;5708;50.660;6.778;2022-12-18T01:01:45;29.15;;;12.98;;
11305;SDS011;5708;50.660;6.778;2022-12-18T01:04:12;30.98;;;13.38;;
11305;SDS011;5708;50.660;6.778;2022-12-18T01:06:37;32.65;;;12.75;;
11305;SDS011;5708;50.660;6.778;2022-12-18T01:09:02;29.02;;;12.02;;
11305;SDS011;5708;50.660;6.778;2022-12-18T01:11:28;26.92;;;11.80;;
11305;SDS011;5708;50.660;6.778;2022-12-18T01:13:53;27.90;;;12.38;;
11305;SDS011;5708;50.660;6.778;2022-12-18T01:16:19;29.05;;;12.45;;
11305;SDS011;5708;50.660;6.778;2022-12-18T01:18:45;29.70;;;12.98;;
11305;SDS011;5708;50.660;6.778;2022-12-18T01:21:12;30.30;;;12.75;;
11305;SDS011;5708;50.660;6.778;2022-12-18T01:23:39;28.77;;;12.70;;
11305;SDS011;5708;50.660;6.778;2022-12-18T01:26:09;34.45;;;13.57;;
11305;SDS011;5708;50.660;6.778;2022-12-18T01:28:36;31.63;;;12.48;;
11305;SDS011;5708;50.660;6.778;2022-12-18T01:31:19;31.65;;;13.50;;
11305;SDS011;5708;50.660;6.778;2022-12-18T01:33:46;29.52;;;12.57;;
11305;SDS011;5708;50.660;6.778;2022-12-18T01:38:43;30.85;;;12.48;;
11305;SDS011;5708;50.660;6.778;2022-12-18T01:41:09;30.83;;;12.20;;
11305;SDS011;5708;50.660;6.778;2022-12-18T01:46:07;33.05;;;12.60;;
11305;SDS011;5708;50.660;6.778;2022-12-18T01:48:34;28.10;;;11.80;;
11305;SDS011;5708;50.660;6.778;2022-12-18T01:50:59;27.80;;;11.15;;
11305;SDS011;5708;50.660;6.778;2022-12-18T01:53:25;25.67;;;9.85;;
11305;SDS011;5708;50.660;6.778;2022-12-18T01:55:56;30.58;;;12.18;;
11305;SDS011;5708;50.660;6.778;2022-12-18T01:58:24;28.42;;;11.40;;
11305;SDS011;5708;50.660;6.778;2022-12-18T02:00:55;29.05;;;11.40;;
11305;SDS011;5708;50.660;6.778;2022-12-18T02:03:20;25.45;;;10.40;;
11305;SDS011;5708;50.660;6.778;2022-12-18T02:06:07;24.73;;;10.70;;
11305;SDS011;5708;50.660;6.778;2022-12-18T02:17:20;24.70;;;9.80;;
11305;SDS011;5708;50.660;6.778;2022-12-18T02:20:07;25.65;;;10.80;;
11305;SDS011;5708;50.660;6.778;2022-12-18T02:27:30;29.77;;;11.73;;
11305;SDS011;5708;50.660;6.778;2022-12-18T02:29:57;23.75;;;10.40;;
11305;SDS011;5708;50.660;6.778;2022-12-18T02:32:28;25.48;;;10.77;;
11305;SDS011;5708;50.660;6.778;2022-12-18T02:34:57;22.23;;;9.98;;
11305;SDS011;5708;50.660;6.778;2022-12-18T02:37:24;28.83;;;10.70;;
11305;SDS011;5708;50.660;6.778;2022-12-18T02:39:51;26.67;;;11.85;;
11305;SDS011;5708;50.660;6.778;2022-12-18T02:42:24;22.83;;;10.40;;
11305;SDS011;5708;50.660;6.778;2022-12-18T02:44:51;28.67;;;10.85;;
11305;SDS011;5708;50.660;6.778;2022-12-18T02:47:17;27.17;;;10.68;;
11305;SDS011;5708;50.660;6.778;2022-12-18T02:55:37;26.02;;;10.30;;
11305;SDS011;5708;50.660;6.778;2022-12-18T03:00:48;28.17;;;11.00;;
11305;SDS011;5708;50.660;6.778;2022-12-18T03:03:46;25.38;;;11.18;;
11305;SDS011;5708;50.660;6.778;2022-12-18T03:06:23;23.50;;;10.30;;
11305;SDS011;5708;50.660;6.778;2022-12-18T03:08:54;25.50;;;10.90;;
11305;SDS011;5708;50.660;6.778;2022-12-18T03:11:22;31.05;;;10.38;;
11305;SDS011;5708;50.660;6.778;2022-12-18T03:14:08;23.08;;;10.35;;
11305;SDS011;5708;50.660;6.778;2022-12-18T03:16:34;21.48;;;9.30;;
11305;SDS011;5708;50.660;6.778;2022-12-18T03:19:01;27.70;;;10.50;;
11305;SDS011;5708;50.660;6.778;2022-12-18T03:21:32;24.27;;;10.57;;
11305;SDS011;5708;50.660;6.778;2022-12-18T03:24:00;24.38;;;10.45;;
11305;SDS011;5708;50.660;6.778;2022-12-18T03:26:26;24.48;;;10.32;;
11305;SDS011;5708;50.660;6.778;2022-12-18T03:28:53;26.92;;;11.10;;
11305;SDS011;5708;50.660;6.778;2022-12-18T03:31:22;23.83;;;10.48;;
11305;SDS011;5708;50.660;6.778;2022-12-18T03:33:52;22.95;;;11.02;;
11305;SDS011;5708;50.660;6.778;2022-12-18T03:36:22;23.98;;;10.38;;
11305;SDS011;5708;50.660;6.778;2022-12-18T03:38:47;25.42;;;10.05;;
11305;SDS011;5708;50.660;6.778;2022-12-18T03:46:28;23.90;;;10.60;;
11305;SDS011;5708;50.660;6.778;2022-12-18T03:49:45;22.50;;;9.73;;
11305;SDS011;5708;50.660;6.778;2022-12-18T03:51:52;21.63;;;10.02;;
11305;SDS011;5708;50.660;6.778;2022-12-18T03:54:22;23.48;;;9.95;;
11305;SDS011;5708;50.660;6.778;2022-12-18T03:56:48;23.98;;;10.13;;
11305;SDS011;5708;50.660;6.778;2022-12-18T03:59:18;27.08;;;11.05;;
11305;SDS011;5708;50.660;6.778;2022-12-18T04:01:46;26.45;;;10.80;;
11305;SDS011;5708;50.660;6.778;2022-12-18T04:04:12;22.45;;;9.93;;
11305;SDS011;5708;50.660;6.778;2022-12-18T04:06:39;23.77;;;10.07;;
11305;SDS011;5708;50.660;6.778;2022-12-18T04:09:06;26.83;;;10.65;;
11305;SDS011;5708;50.660;6.778;2022-12-18T04:11:31;28.80;;;11.13;;
11305;SDS011;5708;50.660;6.778;2022-12-18T04:14:03;23.83;;;10.38;;
11305;SDS011;5708;50.660;6.778;2022-12-18T04:16:29;23.77;;;9.88;;
11305;SDS011;5708;50.660;6.778;2022-12-18T04:18:54;23.92;;;11.00;;
11305;SDS011;5708;50.660;6.778;2022-12-18T04:21:19;27.20;;;11.10;;
11305;SDS011;5708;50.660;6.778;2022-12-18T04:23:45;29.42;;;10.98;;
11305;SDS011;5708;50.660;6.778;2022-12-18T04:26:10;28.55;;;11.65;;
11305;SDS011;5708;50.660;6.778;2022-12-18T04:28:36;25.17;;;10.82;;
11305;SDS011;5708;50.660;6.778;2022-12-18T04:31:01;28.15;;;11.65;;
11305;SDS011;5708;50.660;6.778;2022-12-18T04:33:27;27.30;;;11.50;;
11305;SDS011;5708;50.660;6.778;2022-12-18T04:35:52;27.27;;;12.52;;
11305;SDS011;5708;50.660;6.778;2022-12-18T04:38:18;32.25;;;12.20;;
11305;SDS011;5708;50.660;6.778;2022-12-18T04:40:43;27.90;;;11.25;;
11305;SDS011;5708;50.660;6.778;2022-12-18T04:43:09;29.23;;;11.73;;
11305;SDS011;5708;50.660;6.778;2022-12-18T04:45:34;26.35;;;11.55;;
11305;SDS011;5708;50.660;6.778;2022-12-18T04:48:00;27.20;;;12.68;;
11305;SDS011;5708;50.660;6.778;2022-12-18T04:50:26;25.70;;;11.50;;
11305;SDS011;5708;50.660;6.778;2022-12-18T04:52:52;29.20;;;11.55;;
11305;SDS011;5708;50.660;6.778;2022-12-18T04:55:18;33.50;;;12.10;;
11305;SDS011;5708;50.660;6.778;2022-12-18T04:57:43;27.90;;;11.45;;
11305;SDS011;5708;50.660;6.778;2022-12-18T05:00:09;29.38;;;12.20;;
11305;SDS011;5708;50.660;6.778;2022-12-18T05:02:34;29.85;;;13.13;;
11305;SDS011;5708;50.660;6.778;2022-12-18T05:05:00;29.55;;;13.50;;
11305;SDS011;5708;50.660;6.778;2022-12-18T05:07:25;32.42;;;13.25;;
11305;SDS011;5708;50.660;6.778;2022-12-18T05:09:50;31.33;;;14.13;;
11305;SDS011;5708;50.660;6.778;2022-12-18T05:12:16;37.03;;;14.00;;
11305;SDS011;5708;50.660;6.778;2022-12-18T05:14:41;31.40;;;13.82;;
11305;SDS011;5708;50.660;6.778;2022-12-18T05:17:06;33.75;;;14.13;;
11305;SDS011;5708;50.660;6.778;2022-12-18T05:19:32;33.47;;;13.00;;
11305;SDS011;5708;50.660;6.778;2022-12-18T05:21:57;32.50;;;14.40;;
11305;SDS011;5708;50.660;6.778;2022-12-18T05:24:23;33.95;;;13.20;;
11305;SDS011;5708;50.660;6.778;2022-12-18T05:26:48;30.85;;;13.35;;
11305;SDS011;5708;50.660;6.778;2022-12-18T05:29:14;28.63;;;12.80;;
11305;SDS011;5708;50.660;6.778;2022-12-18T05:31:39;34.70;;;14.00;;
11305;SDS011;5708;50.660;6.778;2022-12-18T05:34:05;32.05;;;13.35;;
11305;SDS011;5708;50.660;6.778;2022-12-18T05:36:30;30.95;;;11.93;;
11305;SDS011;5708;50.660;6.778;2022-12-18T05:38:56;35.00;;;13.85;;
11305;SDS011;5708;50.660;6.778;2022-12-18T05:41:21;33.70;;;14.07;;
11305;SDS011;5708;50.660;6.778;2022-12-18T05:43:47;29.65;;;12.88;;
11305;SDS011;5708;50.660;6.778;2022-12-18T05:46:14;32.83;;;13.07;;
11305;SDS011;5708;50.660;6.778;2022-12-18T05:48:41;30.58;;;12.35;;
11305;SDS011;5708;50.660;6.778;2022-12-18T05:51:08;34.50;;;13.43;;
11305;SDS011;5708;50.660;6.778;2022-12-18T05:53:35;28.17;;;12.75;;
11305;SDS011;5708;50.660;6.778;2022-12-18T05:56:01;30.60;;;13.13;;
11305;SDS011;5708;50.660;6.778;2022-12-18T05:58:30;33.20;;;13.25;;
11305;SDS011;5708;50.660;6.778;2022-12-18T06:00:56;28.27;;;12.13;;
11305;SDS011;5708;50.660;6.778;2022-12-18T06:03:22;27.27;;;11.88;;
11305;SDS011;5708;50.660;6.778;2022-12-18T06:05:47;28.73;;;11.85;;
11305;SDS011;5708;50.660;6.778;2022-12-18T06:08:13;29.48;;;11.68;;
11305;SDS011;5708;50.660;6.778;2022-12-18T06:10:39;31.52;;;13.05;;
11305;SDS011;5708;50.660;6.778;2022-12-18T06:13:05;30.73;;;13.55;;
11305;SDS011;5708;50.660;6.778;2022-12-18T06:15:31;32.65;;;13.32;;
11305;SDS011;5708;50.660;6.778;2022-12-18T06:17:57;36.00;;;13.63;;
11305;SDS011;5708;50.660;6.778;2022-12-18T06:20:22;33.58;;;14.25;;
11305;SDS011;5708;50.660;6.778;2022-12-18T06:22:48;31.33;;;14.13;;
11305;SDS011;5708;50.660;6.778;2022-12-18T06:25:13;36.67;;;13.77;;
11305;SDS011;5708;50.660;6.778;2022-12-18T06:27:38;34.72;;;13.68;;
11305;SDS011;5708;50.660;6.778;2022-12-18T06:30:04;35.05;;;13.32;;
11305;SDS011;5708;50.660;6.778;2022-12-18T06:32:30;32.38;;;14.35;;
11305;SDS011;5708;50.660;6.778;2022-12-18T06:34:55;33.35;;;14.48;;
11305;SDS011;5708;50.660;6.778;2022-12-18T06:37:21;33.22;;;13.65;;
11305;SDS011;5708;50.660;6.778;2022-12-18T06:39:51;33.50;;;13.65;;
11305;SDS011;5708;50.660;6.778;2022-12-18T06:42:16;33.45;;;13.70;;
11305;SDS011;5708;50.660;6.778;2022-12-18T06:44:42;33.72;;;14.75;;
11305;SDS011;5708;50.660;6.778;2022-12-18T06:47:07;31.40;;;13.63;;
11305;SDS011;5708;50.660;6.778;2022-12-18T06:49:32;32.85;;;13.75;;
11305;SDS011;5708;50.660;6.778;2022-12-18T06:51:58;34.65;;;13.90;;
11305;SDS011;5708;50.660;6.778;2022-12-18T06:54:23;35.75;;;14.75;;
11305;SDS011;5708;50.660;6.778;2022-12-18T06:56:48;31.92;;;14.52;;
11305;SDS011;5708;50.660;6.778;2022-12-18T06:59:15;34.30;;;14.23;;
11305;SDS011;5708;50.660;6.778;2022-12-18T07:01:40;33.53;;;14.13;;
11305;SDS011;5708;50.660;6.778;2022-12-18T07:04:05;32.95;;;14.40;;
11305;SDS011;5708;50.660;6.778;2022-12-18T07:06:31;35.67;;;14.07;;
11305;SDS011;5708;50.660;6.778;2022-12-18T07:08:56;31.60;;;13.70;;
11305;SDS011;5708;50.660;6.778;2022-12-18T07:11:21;33.28;;;13.93;;
11305;SDS011;5708;50.660;6.778;2022-12-18T07:13:47;31.88;;;13.85;;
11305;SDS011;5708;50.660;6.778;2022-12-18T07:16:17;33.35;;;13.73;;
11305;SDS011;5708;50.660;6.778;2022-12-18T07:18:43;33.05;;;13.07;;
11305;SDS011;5708;50.660;6.778;2022-12-18T07:21:16;32.17;;;13.85;;
11305;SDS011;5708;50.660;6.778;2022-12-18T07:23:43;30.35;;;13.57;;
11305;SDS011;5708;50.660;6.778;2022-12-18T07:26:11;32.60;;;14.80;;
11305;SDS011;5708;50.660;6.778;2022-12-18T07:28:37;32.80;;;13.43;;
11305;SDS011;5708;50.660;6.778;2022-12-18T07:31:04;35.40;;;14.35;;
11305;SDS011;5708;50.660;6.778;2022-12-18T07:33:31;28.23;;;12.93;;
11305;SDS011;5708;50.660;6.778;2022-12-18T07:35:58;33.72;;;14.68;;
11305;SDS011;5708;50.660;6.778;2022-12-18T07:38:28;32.40;;;13.82;;
11305;SDS011;5708;50.660;6.778;2022-12-18T07:40:54;33.92;;;14.13;;
11305;SDS011;5708;50.660;6.778;2022-12-18T07:43:19;36.60;;;15.63;;
11305;SDS011;5708;50.660;6.778;2022-12-18T07:45:49;33.80;;;15.05;;
11305;SDS011;5708;50.660;6.778;2022-12-18T07:48:14;32.55;;;13.93;;
11305;SDS011;5708;50.660;6.778;2022-12-18T07:50:40;30.13;;;13.20;;
11305;SDS011;5708;50.660;6.778;2022-12-18T07:53:05;32.47;;;13.82;;
11305;SDS011;5708;50.660;6.778;2022-12-18T07:55:31;30.83;;;13.90;;
11305;SDS011;5708;50.660;6.778;2022-12-18T07:57:56;31.58;;;14.80;;
11305;SDS011;5708;50.660;6.778;2022-12-18T08:00:22;31.05;;;13.50;;
11305;SDS011;5708;50.660;6.778;2022-12-18T08:02:48;35.38;;;13.57;;
11305;SDS011;5708;50.660;6.778;2022-12-18T08:05:13;39.40;;;16.90;;
11305;SDS011;5708;50.660;6.778;2022-12-18T08:07:39;38.00;;;15.50;;
11305;SDS011;5708;50.660;6.778;2022-12-18T08:10:05;38.75;;;16.55;;
11305;SDS011;5708;50.660;6.778;2022-12-18T08:12:31;39.30;;;15.52;;
11305;SDS011;5708;50.660;6.778;2022-12-18T08:14:56;36.90;;;15.77;;
11305;SDS011;5708;50.660;6.778;2022-12-18T08:17:21;40.45;;;17.35;;
11305;SDS011;5708;50.660;6.778;2022-12-18T08:19:47;36.95;;;15.38;;
11305;SDS011;5708;50.660;6.778;2022-12-18T08:22:12;34.92;;;16.60;;
11305;SDS011;5708;50.660;6.778;2022-12-18T08:24:37;41.17;;;17.10;;
11305;SDS011;5708;50.660;6.778;2022-12-18T08:27:03;33.42;;;15.85;;
11305;SDS011;5708;50.660;6.778;2022-12-18T08:29:28;37.95;;;17.20;;
11305;SDS011;5708;50.660;6.778;2022-12-18T08:31:55;39.55;;;17.38;;
11305;SDS011;5708;50.660;6.778;2022-12-18T08:34:20;39.22;;;17.48;;
11305;SDS011;5708;50.660;6.778;2022-12-18T08:36:46;39.08;;;17.83;;
11305;SDS011;5708;50.660;6.778;2022-12-18T08:39:11;40.65;;;17.88;;
11305;SDS011;5708;50.660;6.778;2022-12-18T08:41:36;44.15;;;17.63;;
11305;SDS011;5708;50.660;6.778;2022-12-18T08:44:02;40.92;;;18.70;;
11305;SDS011;5708;50.660;6.778;2022-12-18T08:46:46;42.60;;;17.65;;
11305;SDS011;5708;50.660;6.778;2022-12-18T08:49:12;37.42;;;17.00;;
11305;SDS011;5708;50.660;6.778;2022-12-18T08:51:38;38.75;;;17.38;;
11305;SDS011;5708;50.660;6.778;2022-12-18T08:54:03;41.17;;;18.58;;
11305;SDS011;5708;50.660;6.778;2022-12-18T08:56:29;44.00;;;17.83;;
11305;SDS011;5708;50.660;6.778;2022-12-18T08:58:55;37.60;;;17.27;;
11305;SDS011;5708;50.660;6.778;2022-12-18T09:01:20;40.30;;;17.70;;
11305;SDS011;5708;50.660;6.778;2022-12-18T09:03:47;43.22;;;18.67;;
11305;SDS011;5708;50.660;6.778;2022-12-18T09:06:14;39.03;;;18.58;;
11305;SDS011;5708;50.660;6.778;2022-12-18T09:08:40;37.10;;;17.02;;
11305;SDS011;5708;50.660;6.778;2022-12-18T09:11:11;34.85;;;17.17;;
11305;SDS011;5708;50.660;6.778;2022-12-18T09:13:38;38.15;;;17.33;;
11305;SDS011;5708;50.660;6.778;2022-12-18T09:16:04;39.83;;;17.20;;
11305;SDS011;5708;50.660;6.778;2022-12-18T09:18:29;34.85;;;17.10;;
11305;SDS011;5708;50.660;6.778;2022-12-18T09:20:55;37.38;;;17.08;;
11305;SDS011;5708;50.660;6.778;2022-12-18T09:23:20;32.00;;;15.30;;
11305;SDS011;5708;50.660;6.778;2022-12-18T09:25:46;37.97;;;16.90;;
11305;SDS011;5708;50.660;6.778;2022-12-18T09:28:12;38.67;;;17.08;;
11305;SDS011;5708;50.660;6.778;2022-12-18T09:30:40;37.55;;;17.15;;
11305;SDS011;5708;50.660;6.778;2022-12-18T09:33:06;39.40;;;17.67;;
11305;SDS011;5708;50.660;6.778;2022-12-18T09:35:32;37.22;;;16.20;;
11305;SDS011;5708;50.660;6.778;2022-12-18T09:37:57;36.95;;;17.83;;
11305;SDS011;5708;50.660;6.778;2022-12-18T09:40:24;35.00;;;17.42;;
11305;SDS011;5708;50.660;6.778;2022-12-18T09:42:57;33.30;;;16.75;;
11305;SDS011;5708;50.660;6.778;2022-12-18T09:45:25;37.58;;;17.45;;
11305;SDS011;5708;50.660;6.778;2022-12-18T09:47:50;34.88;;;17.77;;
11305;SDS011;5708;50.660;6.778;2022-12-18T09:52:58;40.38;;;18.13;;
11305;SDS011;5708;50.660;6.778;2022-12-18T09:55:29;38.80;;;17.80;;
11305;SDS011;5708;50.660;6.778;2022-12-18T09:58:07;39.47;;;18.20;;
11305;SDS011;5708;50.660;6.778;2022-12-18T10:00:37;41.00;;;18.17;;
11305;SDS011;5708;50.660;6.778;2022-12-18T10:03:03;37.33;;;18.85;;
11305;SDS011;5708;50.660;6.778;2022-12-18T10:10:56;42.05;;;18.10;;
11305;SDS011;5708;50.660;6.778;2022-12-18T10:13:46;39.22;;;18.52;;
11305;SDS011;5708;50.660;6.778;2022-12-18T10:16:25;34.97;;;17.25;;
11305;SDS011;5708;50.660;6.778;2022-12-18T10:21:34;36.75;;;17.50;;
11305;SDS011;5708;50.660;6.778;2022-12-18T10:26:38;35.10;;;16.98;;
11305;SDS011;5708;50.660;6.778;2022-12-18T10:29:13;35.47;;;16.65;;
11305;SDS011;5708;50.660;6.778;2022-12-18T10:31:39;35.90;;;16.88;;
11305;SDS011;5708;50.660;6.778;2022-12-18T10:34:14;31.10;;;16.23;;
11305;SDS011;5708;50.660;6.778;2022-12-18T10:36:39;36.97;;;17.52;;
11305;SDS011;5708;50.660;6.778;2022-12-18T10:41:41;32.35;;;16.88;;
11305;SDS011;5708;50.660;6.778;2022-12-18T10:46:35;33.70;;;17.27;;
11305;SDS011;5708;50.660;6.778;2022-12-18T10:49:00;34.40;;;16.95;;
11305;SDS011;5708;50.660;6.778;2022-12-18T10:53:54;35.35;;;17.42;;
11305;SDS011;5708;50.660;6.778;2022-12-18T10:56:30;31.00;;;15.63;;
11305;SDS011;5708;50.660;6.778;2022-12-18T10:59:01;32.15;;;15.35;;
11305;SDS011;5708;50.660;6.778;2022-12-18T11:04:23;29.85;;;13.50;;
11305;SDS011;5708;50.660;6.778;2022-12-18T11:06:59;31.52;;;15.48;;
11305;SDS011;5708;50.660;6.778;2022-12-18T11:09:32;30.75;;;14.98;;
11305;SDS011;5708;50.660;6.778;2022-12-18T11:12:14;30.67;;;15.38;;
11305;SDS011;5708;50.660;6.778;2022-12-18T11:14:42;34.35;;;15.80;;
11305;SDS011;5708;50.660;6.778;2022-12-18T11:17:18;32.47;;;15.82;;
11305;SDS011;5708;50.660;6.778;2022-12-18T11:19:44;33.65;;;16.75;;
11305;SDS011;5708;50.660;6.778;2022-12-18T11:22:20;30.15;;;15.05;;
11305;SDS011;5708;50.660;6.778;2022-12-18T11:24:52;27.30;;;14.20;;
11305;SDS011;5708;50.660;6.778;2022-12-18T11:27:22;29.02;;;14.05;;
11305;SDS011;5708;50.660;6.778;2022-12-18T11:29:49;29.63;;;15.07;;
11305;SDS011;5708;50.660;6.778;2022-12-18T11:32:58;29.05;;;15.13;;
11305;SDS011;5708;50.660;6.778;2022-12-18T11:40:47;28.98;;;15.05;;
11305;SDS011;5708;50.660;6.778;2022-12-18T11:43:27;36.75;;;18.08;;
11305;SDS011;5708;50.660;6.778;2022-12-18T11:45:58;32.20;;;16.20;;
11305;SDS011;5708;50.660;6.778;2022-12-18T11:48:27;28.70;;;14.43;;
11305;SDS011;5708;50.660;6.778;2022-12-18T11:50:56;32.75;;;16.65;;
11305;SDS011;5708;50.660;6.778;2022-12-18T11:53:22;28.95;;;15.20;;
11305;SDS011;5708;50.660;6.778;2022-12-18T12:06:38;27.70;;;15.02;;
11305;SDS011;5708;50.660;6.778;2022-12-18T12:12:38;26.52;;;14.30;;
11305;SDS011;5708;50.660;6.778;2022-12-18T12:15:16;29.50;;;15.48;;
11305;SDS011;5708;50.660;6.778;2022-12-18T12:17:59;33.25;;;16.58;;
11305;SDS011;5708;50.660;6.778;2022-12-18T12:20:35;31.67;;;15.07;;
11305;SDS011;5708;50.660;6.778;2022-12-18T12:26:11;26.20;;;14.80;;
11305;SDS011;5708;50.660;6.778;2022-12-18T12:29:01;36.40;;;15.77;;
11305;SDS011;5708;50.660;6.778;2022-12-18T12:34:19;31.67;;;15.43;;
11305;SDS011;5708;50.660;6.778;2022-12-18T12:39:50;33.08;;;15.25;;
11305;SDS011;5708;50.660;6.778;2022-12-18T12:42:19;30.23;;;14.48;;
11305;SDS011;5708;50.660;6.778;2022-12-18T12:45:09;31.05;;;16.10;;
11305;SDS011;5708;50.660;6.778;2022-12-18T12:47:41;34.75;;;15.82;;
11305;SDS011;5708;50.660;6.778;2022-12-18T12:50:12;32.00;;;16.13;;
11305;SDS011;5708;50.660;6.778;2022-12-18T12:52:42;29.13;;;16.05;;
11305;SDS011;5708;50.660;6.778;2022-12-18T12:55:14;32.80;;;15.88;;
11305;SDS011;5708;50.660;6.778;2022-12-18T12:57:48;28.60;;;15.73;;
11305;SDS011;5708;50.660;6.778;2022-12-18T13:00:19;34.42;;;16.73;;
11305;SDS011;5708;50.660;6.778;2022-12-18T13:08:24;32.60;;;16.55;;
11305;SDS011;5708;50.660;6.778;2022-12-18T13:10:51;31.80;;;16.63;;
11305;SDS011;5708;50.660;6.778;2022-12-18T13:13:50;32.17;;;15.98;;
11305;SDS011;5708;50.660;6.778;2022-12-18T13:16:20;32.38;;;16.02;;
11305;SDS011;5708;50.660;6.778;2022-12-18T13:18:52;32.55;;;16.98;;
11305;SDS011;5708;50.660;6.778;2022-12-18T13:21:26;34.20;;;16.83;;
11305;SDS011;5708;50.660;6.778;2022-12-18T13:23:53;35.65;;;17.17;;
11305;SDS011;5708;50.660;6.778;2022-12-18T13:28:50;34.47;;;17.75;;
11305;SDS011;5708;50.660;6.778;2022-12-18T13:34:24;33.78;;;16.73;;
11305;SDS011;5708;50.660;6.778;2022-12-18T13:36:51;32.88;;;17.33;;
11305;SDS011;5708;50.660;6.778;2022-12-18T13:41:42;30.52;;;16.67;;
11305;SDS011;5708;50.660;6.778;2022-12-18T13:46:57;34.53;;;17.00;;
11305;SDS011;5708;50.660;6.778;2022-12-18T13:49:40;37.75;;;17.98;;
11305;SDS011;5708;50.660;6.778;2022-12-18T13:52:20;35.33;;;17.70;;
11305;SDS011;5708;50.660;6.778;2022-12-18T13:54:51;33.38;;;17.45;;
11305;SDS011;5708;50.660;6.778;2022-12-18T13:57:27;34.35;;;18.17;;
11305;SDS011;5708;50.660;6.778;2022-12-18T13:59:53;38.05;;;18.65;;
11305;SDS011;5708;50.660;6.778;2022-12-18T14:02:28;36.38;;;18.55;;
11305;SDS011;5708;50.660;6.778;2022-12-18T14:04:54;40.35;;;18.67;;
11305;SDS011;5708;50.660;6.778;2022-12-18T14:09:49;37.40;;;18.08;;
11305;SDS011;5708;50.660;6.778;2022-12-18T14:12:32;40.30;;;18.05;;
11305;SDS011;5708;50.660;6.778;2022-12-18T14:18:03;38.67;;;19.05;;
11305;SDS011;5708;50.660;6.778;2022-12-18T14:20:41;36.35;;;18.23;;
11305;SDS011;5708;50.660;6.778;2022-12-18T14:25:55;40.05;;;18.60;;
11305;SDS011;5708;50.660;6.778;2022-12-18T14:28:21;35.30;;;17.35;;
11305;SDS011;5708;50.660;6.778;2022-12-18T14:30:47;37.88;;;17.73;;
11305;SDS011;5708;50.660;6.778;2022-12-18T14:35:51;39.53;;;18.17;;
11305;SDS011;5708;50.660;6.778;2022-12-18T14:38:24;39.90;;;18.48;;
11305;SDS011;5708;50.660;6.778;2022-12-18T14:43:25;46.65;;;21.15;;
11305;SDS011;5708;50.660;6.778;2022-12-18T14:45:52;42.72;;;19.73;;
11305;SDS011;5708;50.660;6.778;2022-12-18T14:48:19;44.03;;;20.88;;
11305;SDS011;5708;50.660;6.778;2022-12-18T14:51:15;45.38;;;20.35;;
11305;SDS011;5708;50.660;6.778;2022-12-18T14:53:44;42.00;;;18.85;;
11305;SDS011;5708;50.660;6.778;2022-12-18T14:56:16;40.35;;;19.77;;
11305;SDS011;5708;50.660;6.778;2022-12-18T14:58:47;40.42;;;19.08;;
11305;SDS011;5708;50.660;6.778;2022-12-18T15:01:18;43.70;;;20.63;;
11305;SDS011;5708;50.660;6.778;2022-12-18T15:03:44;44.55;;;19.27;;
11305;SDS011;5708;50.660;6.778;2022-12-18T15:06:17;40.72;;;18.77;;
11305;SDS011;5708;50.660;6.778;2022-12-18T15:08:46;40.60;;;19.73;;
11305;SDS011;5708;50.660;6.778;2022-12-18T15:16:54;45.38;;;20.90;;
11305;SDS011;5708;50.660;6.778;2022-12-18T15:19:21;34.67;;;17.30;;
11305;SDS011;5708;50.660;6.778;2022-12-18T15:21:48;40.20;;;19.00;;
11305;SDS011;5708;50.660;6.778;2022-12-18T15:24:17;39.17;;;18.55;;
11305;SDS011;5708;50.660;6.778;2022-12-18T15:26:43;44.60;;;20.83;;
11305;SDS011;5708;50.660;6.778;2022-12-18T15:29:17;44.85;;;20.58;;
11305;SDS011;5708;50.660;6.778;2022-12-18T15:31:45;45.45;;;19.02;;
11305;SDS011;5708;50.660;6.778;2022-12-18T15:34:29;43.40;;;18.30;;
11305;SDS011;5708;50.660;6.778;2022-12-18T15:36:55;44.83;;;20.23;;
11305;SDS011;5708;50.660;6.778;2022-12-18T15:39:21;50.25;;;21.42;;
11305;SDS011;5708;50.660;6.778;2022-12-18T15:41:46;48.20;;;21.48;;
11305;SDS011;5708;50.660;6.778;2022-12-18T15:44:30;45.55;;;21.02;;
11305;SDS011;5708;50.660;6.778;2022-12-18T15:46:56;44.35;;;21.50;;
11305;SDS011;5708;50.660;6.778;2022-12-18T15:49:22;43.08;;;21.60;;
11305;SDS011;5708;50.660;6.778;2022-12-18T15:51:54;45.63;;;21.33;;
11305;SDS011;5708;50.660;6.778;2022-12-18T15:54:21;46.42;;;20.67;;
11305;SDS011;5708;50.660;6.778;2022-12-18T15:57:08;45.13;;;20.58;;
11305;SDS011;5708;50.660;6.778;2022-12-18T15:59:50;46.83;;;22.75;;
11305;SDS011;5708;50.660;6.778;2022-12-18T16:02:17;43.75;;;21.50;;
11305;SDS011;5708;50.660;6.778;2022-12-18T16:04:43;47.35;;;21.15;;
11305;SDS011;5708;50.660;6.778;2022-12-18T16:07:10;45.55;;;21.20;;
11305;SDS011;5708;50.660;6.778;2022-12-18T16:09:36;44.38;;;21.70;;
11305;SDS011;5708;50.660;6.778;2022-12-18T16:12:02;44.35;;;20.63;;
11305;SDS011;5708;50.660;6.778;2022-12-18T16:14:29;41.72;;;19.40;;
11305;SDS011;5708;50.660;6.778;2022-12-18T16:16:56;43.92;;;20.45;;
11305;SDS011;5708;50.660;6.778;2022-12-18T16:19:23;48.10;;;21.40;;
11305;SDS011;5708;50.660;6.778;2022-12-18T16:21:50;43.85;;;21.02;;
11305;SDS011;5708;50.660;6.778;2022-12-18T16:24:20;41.63;;;19.92;;
11305;SDS011;5708;50.660;6.778;2022-12-18T16:26:47;45.13;;;20.98;;
11305;SDS011;5708;50.660;6.778;2022-12-18T16:29:13;44.28;;;20.70;;
11305;SDS011;5708;50.660;6.778;2022-12-18T16:31:38;45.08;;;22.42;;
11305;SDS011;5708;50.660;6.778;2022-12-18T16:36:36;46.63;;;20.65;;
11305;SDS011;5708;50.660;6.778;2022-12-18T16:39:01;43.78;;;20.02;;
11305;SDS011;5708;50.660;6.778;2022-12-18T16:41:27;45.85;;;21.63;;
11305;SDS011;5708;50.660;6.778;2022-12-18T16:43:59;54.10;;;22.88;;
11305;SDS011;5708;50.660;6.778;2022-12-18T16:46:24;50.47;;;22.63;;